sensor_id;sensor_type;location;lat;lon;timestamp;pressure;altitude;pressure_sealevel;temperature;humidity
39491;BME280;25175;50.140;18.990;2022-08-27T00:01:24;98014.28;;;19.75;53.57
39491;BME280;25175;50.140;18.990;2022-08-27T00:04:27;98020.97;;;19.68;53.90
39491;BME280;25175;50.140;18.990;2022-08-27T00:07:29;98013.81;;;19.63;53.75
39491;BME280;25175;50.140;18.990;2022-08-27T00:10:31;98004.50;;;19.61;54.11
39491;BME280;25175;50.140;18.990;2022-08-27T00:13:36;98005.59;;;19.60;54.05
39491;BME280;25175;50.140;18.990;2022-08-27T00:16:38;98003.19;;;19.53;53.96
39491;BME280;25175;50.140;18.990;2022-08-27T00:19:41;98004.56;;;19.41;53.69
39491;BME280;25175;50.140;18.990;2022-08-27T00:22:44;98011.25;;;19.28;54.23
39491;BME280;25175;50.140;18.990;2022-08-27T00:25:46;98013.38;;;19.21;54.34
39491;BME280;25175;50.140;18.990;2022-08-27T00:28:50;98017.91;;;19.16;54.57
39491;BME280;25175;50.140;18.990;2022-08-27T00:31:52;98016.31;;;19.15;54.85
39491;BME280;25175;50.140;18.990;2022-08-27T00:34:55;98018.16;;;19.09;54.95
39491;BME280;25175;50.140;18.990;2022-08-27T00:37:57;98022.69;;;19.04;55.10
39491;BME280;25175;50.140;18.990;2022-08-27T00:41:00;98016.81;;;19.02;55.39
39491;BME280;25175;50.140;18.990;2022-08-27T00:44:05;98022.41;;;19.05;55.37
39491;BME280;25175;50.140;18.990;2022-08-27T00:47:14;98015.50;;;19.04;55.50
39491;BME280;25175;50.140;18.990;2022-08-27T00:50:20;98010.47;;;19.03;55.73
39491;BME280;25175;50.140;18.990;2022-08-27T00:53:26;98010.72;;;19.01;55.78
39491;BME280;25175;50.140;18.990;2022-08-27T00:56:33;98012.81;;;18.99;56.04
39491;BME280;25175;50.140;18.990;2022-08-27T00:59:37;98008.88;;;18.92;56.11
39491;BME280;25175;50.140;18.990;2022-08-27T01:02:41;98009.41;;;18.89;56.16
39491;BME280;25175;50.140;18.990;2022-08-27T01:05:47;98004.88;;;18.84;56.37
39491;BME280;25175;50.140;18.990;2022-08-27T01:08:56;97998.00;;;18.78;56.51
39491;BME280;25175;50.140;18.990;2022-08-27T01:12:00;98002.22;;;18.74;56.45
39491;BME280;25175;50.140;18.990;2022-08-27T01:15:06;98010.44;;;18.68;56.57
39491;BME280;25175;50.140;18.990;2022-08-27T01:18:11;98004.88;;;18.64;56.48
39491;BME280;25175;50.140;18.990;2022-08-27T01:21:20;98005.13;;;18.58;56.47
39491;BME280;25175;50.140;18.990;2022-08-27T01:24:33;98014.69;;;18.54;56.52
39491;BME280;25175;50.140;18.990;2022-08-27T01:27:38;98006.97;;;18.47;57.13
39491;BME280;25175;50.140;18.990;2022-08-27T01:30:41;98012.28;;;18.47;57.16
39491;BME280;25175;50.140;18.990;2022-08-27T01:33:53;98003.53;;;18.47;57.12
39491;BME280;25175;50.140;18.990;2022-08-27T01:36:55;98006.97;;;18.47;57.29
39491;BME280;25175;50.140;18.990;2022-08-27T01:39:59;98004.59;;;18.46;57.31
39491;BME280;25175;50.140;18.990;2022-08-27T01:43:04;98006.44;;;18.35;56.96
39491;BME280;25175;50.140;18.990;2022-08-27T01:46:06;98011.16;;;18.23;57.36
39491;BME280;25175;50.140;18.990;2022-08-27T01:49:09;98011.66;;;18.20;57.50
39491;BME280;25175;50.140;18.990;2022-08-27T01:52:13;98019.09;;;18.13;57.45
39491;BME280;25175;50.140;18.990;2022-08-27T01:55:20;98017.97;;;18.04;57.67
39491;BME280;25175;50.140;18.990;2022-08-27T01:58:28;98010.81;;;18.00;58.21
39491;BME280;25175;50.140;18.990;2022-08-27T02:01:31;98017.97;;;17.99;58.39
39491;BME280;25175;50.140;18.990;2022-08-27T02:04:33;98015.06;;;18.01;58.56
39491;BME280;25175;50.140;18.990;2022-08-27T02:07:36;98016.41;;;18.03;58.52
39491;BME280;25175;50.140;18.990;2022-08-27T02:10:40;98023.28;;;18.04;58.41
39491;BME280;25175;50.140;18.990;2022-08-27T02:13:43;98013.75;;;18.03;58.38
39491;BME280;25175;50.140;18.990;2022-08-27T02:16:45;98012.69;;;18.04;58.75
39491;BME280;25175;50.140;18.990;2022-08-27T02:19:47;98010.03;;;18.04;58.68
39491;BME280;25175;50.140;18.990;2022-08-27T02:22:50;98009.50;;;18.02;58.60
39491;BME280;25175;50.140;18.990;2022-08-27T02:25:53;98007.91;;;17.96;59.11
39491;BME280;25175;50.140;18.990;2022-08-27T02:28:56;98013.19;;;17.91;59.07
39491;BME280;25175;50.140;18.990;2022-08-27T02:31:58;98017.41;;;17.87;59.17
39491;BME280;25175;50.140;18.990;2022-08-27T02:35:01;98013.94;;;17.82;59.41
39491;BME280;25175;50.140;18.990;2022-08-27T02:38:04;98010.69;;;17.70;59.87
39491;BME280;25175;50.140;18.990;2022-08-27T02:41:08;98023.16;;;17.69;60.10
39491;BME280;25175;50.140;18.990;2022-08-27T02:44:10;98020.69;;;17.58;60.32
39491;BME280;25175;50.140;18.990;2022-08-27T02:47:13;98018.81;;;17.48;60.48
39491;BME280;25175;50.140;18.990;2022-08-27T02:50:16;98011.81;;;17.37;60.85
39491;BME280;25175;50.140;18.990;2022-08-27T02:53:19;98009.38;;;17.31;61.14
39491;BME280;25175;50.140;18.990;2022-08-27T02:56:22;98018.91;;;17.27;61.30
39491;BME280;25175;50.140;18.990;2022-08-27T02:59:25;98011.22;;;17.25;61.44
39491;BME280;25175;50.140;18.990;2022-08-27T03:02:27;98010.97;;;17.27;61.54
39491;BME280;25175;50.140;18.990;2022-08-27T03:05:29;98010.97;;;17.27;61.58
39491;BME280;25175;50.140;18.990;2022-08-27T03:08:32;98006.44;;;17.22;61.53
39491;BME280;25175;50.140;18.990;2022-08-27T03:11:35;98007.69;;;17.15;61.62
39491;BME280;25175;50.140;18.990;2022-08-27T03:14:38;97998.94;;;17.09;62.00
39491;BME280;25175;50.140;18.990;2022-08-27T03:17:41;98000.53;;;17.10;62.09
39491;BME280;25175;50.140;18.990;2022-08-27T03:21:00;98007.97;;;17.13;62.15
39491;BME280;25175;50.140;18.990;2022-08-27T03:24:04;97996.09;;;17.16;62.10
39491;BME280;25175;50.140;18.990;2022-08-27T03:27:07;97988.38;;;17.14;62.28
39491;BME280;25175;50.140;18.990;2022-08-27T03:30:14;98002.69;;;17.13;62.27
39491;BME280;25175;50.140;18.990;2022-08-27T03:33:17;98002.66;;;17.08;62.40
39491;BME280;25175;50.140;18.990;2022-08-27T03:36:20;97999.16;;;17.03;62.36
39491;BME280;25175;50.140;18.990;2022-08-27T03:39:22;97996.22;;;16.99;62.47
39491;BME280;25175;50.140;18.990;2022-08-27T03:42:26;97996.75;;;16.97;62.44
39491;BME280;25175;50.140;18.990;2022-08-27T03:45:28;97995.13;;;16.95;62.45
39491;BME280;25175;50.140;18.990;2022-08-27T03:48:31;97990.88;;;16.94;62.33
39491;BME280;25175;50.140;18.990;2022-08-27T03:51:34;97990.88;;;16.94;62.33
39491;BME280;25175;50.140;18.990;2022-08-27T03:54:36;97998.81;;;16.94;62.24
39491;BME280;25175;50.140;18.990;2022-08-27T03:57:40;97997.00;;;16.95;62.09
39491;BME280;25175;50.140;18.990;2022-08-27T04:00:42;98006.53;;;16.96;62.21
39491;BME280;25175;50.140;18.990;2022-08-27T04:03:44;98000.97;;;16.98;62.22
39491;BME280;25175;50.140;18.990;2022-08-27T04:06:47;97994.63;;;16.98;61.87
39491;BME280;25175;50.140;18.990;2022-08-27T04:09:49;98011.03;;;17.00;61.63
39491;BME280;25175;50.140;18.990;2022-08-27T04:12:53;98006.00;;;16.99;61.78
39491;BME280;25175;50.140;18.990;2022-08-27T04:15:55;97997.03;;;17.00;62.07
39491;BME280;25175;50.140;18.990;2022-08-27T04:18:57;97995.72;;;17.02;62.07
39491;BME280;25175;50.140;18.990;2022-08-27T04:22:01;98001.31;;;17.06;61.95
39491;BME280;25175;50.140;18.990;2022-08-27T04:25:04;98006.06;;;17.09;61.81
39491;BME280;25175;50.140;18.990;2022-08-27T04:28:08;98004.22;;;17.09;61.79
39491;BME280;25175;50.140;18.990;2022-08-27T04:31:10;98010.31;;;17.10;62.10
39491;BME280;25175;50.140;18.990;2022-08-27T04:34:13;98005.81;;;17.10;62.22
39491;BME280;25175;50.140;18.990;2022-08-27T04:37:15;98005.78;;;17.05;62.36
39491;BME280;25175;50.140;18.990;2022-08-27T04:40:17;98013.19;;;17.03;62.56
39491;BME280;25175;50.140;18.990;2022-08-27T04:43:21;98003.66;;;17.02;63.07
39491;BME280;25175;50.140;18.990;2022-08-27T04:46:25;98000.22;;;17.02;63.19
39491;BME280;25175;50.140;18.990;2022-08-27T04:49:28;98012.34;;;16.98;63.13
39491;BME280;25175;50.140;18.990;2022-08-27T04:52:30;98031.44;;;17.00;63.36
39491;BME280;25175;50.140;18.990;2022-08-27T04:55:33;98046.78;;;17.03;62.97
39491;BME280;25175;50.140;18.990;2022-08-27T04:58:36;98052.66;;;17.05;63.07
39491;BME280;25175;50.140;18.990;2022-08-27T05:01:39;98058.47;;;17.07;62.79
39491;BME280;25175;50.140;18.990;2022-08-27T05:04:41;98054.00;;;17.08;63.01
39491;BME280;25175;50.140;18.990;2022-08-27T05:07:44;98048.72;;;17.12;63.06
39491;BME280;25175;50.140;18.990;2022-08-27T05:10:49;98035.25;;;17.19;62.85
39491;BME280;25175;50.140;18.990;2022-08-27T05:13:53;98024.75;;;17.29;62.71
39491;BME280;25175;50.140;18.990;2022-08-27T05:16:55;98036.16;;;17.34;62.57
39491;BME280;25175;50.140;18.990;2022-08-27T05:19:58;98040.44;;;17.40;62.23
39491;BME280;25175;50.140;18.990;2022-08-27T05:23:00;98043.09;;;17.45;62.49
39491;BME280;25175;50.140;18.990;2022-08-27T05:26:03;98045.31;;;17.53;62.20
39491;BME280;25175;50.140;18.990;2022-08-27T05:29:06;98054.88;;;17.59;62.22
39491;BME280;25175;50.140;18.990;2022-08-27T05:32:08;98052.28;;;17.64;62.24
39491;BME280;25175;50.140;18.990;2022-08-27T05:35:11;98061.84;;;17.70;62.04
39491;BME280;25175;50.140;18.990;2022-08-27T05:38:14;98049.16;;;17.77;61.76
39491;BME280;25175;50.140;18.990;2022-08-27T05:41:20;98045.75;;;17.82;61.93
39491;BME280;25175;50.140;18.990;2022-08-27T05:44:26;98043.91;;;17.87;62.23
39491;BME280;25175;50.140;18.990;2022-08-27T05:47:28;98052.69;;;17.93;62.17
39491;BME280;25175;50.140;18.990;2022-08-27T05:50:31;98055.31;;;17.98;61.91
39491;BME280;25175;50.140;18.990;2022-08-27T05:53:33;98060.94;;;18.06;62.06
39491;BME280;25175;50.140;18.990;2022-08-27T05:56:37;98062.81;;;18.11;61.87
39491;BME280;25175;50.140;18.990;2022-08-27T05:59:40;98067.84;;;18.17;61.70
39491;BME280;25175;50.140;18.990;2022-08-27T06:03:13;98049.63;;;18.26;61.58
39491;BME280;25175;50.140;18.990;2022-08-27T06:06:16;98046.47;;;18.34;61.67
39491;BME280;25175;50.140;18.990;2022-08-27T06:09:20;98052.06;;;18.42;61.61
39491;BME280;25175;50.140;18.990;2022-08-27T06:12:23;98060.56;;;18.49;61.27
39491;BME280;25175;50.140;18.990;2022-08-27T06:15:26;98050.50;;;18.56;61.23
39491;BME280;25175;50.140;18.990;2022-08-27T06:18:29;98052.63;;;18.64;61.30
39491;BME280;25175;50.140;18.990;2022-08-27T06:21:31;98055.81;;;18.71;61.62
39491;BME280;25175;50.140;18.990;2022-08-27T06:24:34;98051.06;;;18.78;61.97
39491;BME280;25175;50.140;18.990;2022-08-27T06:27:36;98045.22;;;18.86;62.23
39491;BME280;25175;50.140;18.990;2022-08-27T06:30:39;98042.03;;;18.94;62.12
39491;BME280;25175;50.140;18.990;2022-08-27T06:33:43;98038.06;;;19.02;62.36
39491;BME280;25175;50.140;18.990;2022-08-27T06:36:45;98040.47;;;19.08;62.63
39491;BME280;25175;50.140;18.990;2022-08-27T06:39:47;98045.78;;;19.18;62.71
39491;BME280;25175;50.140;18.990;2022-08-27T06:42:51;98055.06;;;19.26;62.93
39491;BME280;25175;50.140;18.990;2022-08-27T06:45:55;98049.47;;;19.37;62.22
39491;BME280;25175;50.140;18.990;2022-08-27T06:48:59;98044.94;;;19.48;62.11
39491;BME280;25175;50.140;18.990;2022-08-27T06:52:02;98051.28;;;19.57;62.42
39491;BME280;25175;50.140;18.990;2022-08-27T06:55:06;98050.50;;;19.66;62.15
39491;BME280;25175;50.140;18.990;2022-08-27T06:58:11;98063.22;;;19.74;61.82
39491;BME280;25175;50.140;18.990;2022-08-27T07:01:17;98058.69;;;19.80;61.68
39491;BME280;25175;50.140;18.990;2022-08-27T07:04:22;98060.00;;;19.82;61.45
39491;BME280;25175;50.140;18.990;2022-08-27T07:07:25;98072.25;;;19.88;61.48
39491;BME280;25175;50.140;18.990;2022-08-27T07:10:28;98071.16;;;19.94;61.29
39491;BME280;25175;50.140;18.990;2022-08-27T07:13:31;98070.59;;;20.02;61.71
39491;BME280;25175;50.140;18.990;2022-08-27T07:16:35;98068.97;;;20.11;62.01
39491;BME280;25175;50.140;18.990;2022-08-27T07:19:38;98085.44;;;20.18;62.38
39491;BME280;25175;50.140;18.990;2022-08-27T07:22:40;98079.00;;;20.29;62.06
39491;BME280;25175;50.140;18.990;2022-08-27T07:25:43;98086.66;;;20.41;61.87
39491;BME280;25175;50.140;18.990;2022-08-27T07:28:46;98094.06;;;20.54;61.40
39491;BME280;25175;50.140;18.990;2022-08-27T07:31:50;98093.44;;;20.67;61.46
39491;BME280;25175;50.140;18.990;2022-08-27T07:34:52;98086.72;;;20.79;61.51
39491;BME280;25175;50.140;18.990;2022-08-27T07:37:54;98090.91;;;20.90;62.42
39491;BME280;25175;50.140;18.990;2022-08-27T07:40:58;98104.34;;;21.09;62.44
39491;BME280;25175;50.140;18.990;2022-08-27T07:44:01;98106.13;;;21.23;62.17
39491;BME280;25175;50.140;18.990;2022-08-27T07:47:22;98102.81;;;21.36;62.39
39491;BME280;25175;50.140;18.990;2022-08-27T07:50:24;98105.34;;;21.51;62.19
39491;BME280;25175;50.140;18.990;2022-08-27T07:53:27;98116.41;;;21.63;62.13
39491;BME280;25175;50.140;18.990;2022-08-27T07:56:29;98117.38;;;21.77;62.21
39491;BME280;25175;50.140;18.990;2022-08-27T07:59:31;98113.53;;;21.88;61.49
39491;BME280;25175;50.140;18.990;2022-08-27T08:02:35;98100.09;;;21.98;60.93
39491;BME280;25175;50.140;18.990;2022-08-27T08:05:40;98112.25;;;22.09;61.12
39491;BME280;25175;50.140;18.990;2022-08-27T08:08:42;98114.50;;;22.21;60.40
39491;BME280;25175;50.140;18.990;2022-08-27T08:11:45;98105.88;;;22.29;60.11
39491;BME280;25175;50.140;18.990;2022-08-27T08:14:47;98106.03;;;22.37;60.11
39491;BME280;25175;50.140;18.990;2022-08-27T08:17:51;98109.63;;;22.46;60.17
39491;BME280;25175;50.140;18.990;2022-08-27T08:20:58;98104.41;;;22.60;60.48
39491;BME280;25175;50.140;18.990;2022-08-27T08:24:01;98117.56;;;22.75;60.01
39491;BME280;25175;50.140;18.990;2022-08-27T08:27:03;98128.88;;;22.85;59.27
39491;BME280;25175;50.140;18.990;2022-08-27T08:30:07;98124.78;;;22.93;59.00
39491;BME280;25175;50.140;18.990;2022-08-27T08:33:11;98124.34;;;23.04;58.78
39491;BME280;25175;50.140;18.990;2022-08-27T08:36:16;98140.19;;;23.19;59.32
39491;BME280;25175;50.140;18.990;2022-08-27T08:39:19;98123.69;;;23.31;58.67
39491;BME280;25175;50.140;18.990;2022-08-27T08:42:30;98125.31;;;23.45;58.46
39491;BME280;25175;50.140;18.990;2022-08-27T08:45:37;98136.03;;;23.59;57.91
39491;BME280;25175;50.140;18.990;2022-08-27T08:48:46;98135.78;;;23.74;57.39
39491;BME280;25175;50.140;18.990;2022-08-27T08:51:51;98131.56;;;23.86;56.75
39491;BME280;25175;50.140;18.990;2022-08-27T08:55:02;98129.00;;;23.95;55.96
39491;BME280;25175;50.140;18.990;2022-08-27T08:58:15;98142.88;;;24.10;55.45
39491;BME280;25175;50.140;18.990;2022-08-27T09:01:20;98150.25;;;24.18;55.58
39491;BME280;25175;50.140;18.990;2022-08-27T09:04:26;98141.50;;;24.26;55.32
39491;BME280;25175;50.140;18.990;2022-08-27T09:07:33;98135.75;;;24.33;55.05
39491;BME280;25175;50.140;18.990;2022-08-27T09:10:41;98149.56;;;24.40;54.90
39491;BME280;25175;50.140;18.990;2022-08-27T09:13:48;98147.06;;;24.57;53.67
39491;BME280;25175;50.140;18.990;2022-08-27T09:16:51;98153.00;;;24.67;52.95
39491;BME280;25175;50.140;18.990;2022-08-27T09:19:55;98144.25;;;24.75;53.87
39491;BME280;25175;50.140;18.990;2022-08-27T09:23:08;98150.19;;;24.86;53.88
39491;BME280;25175;50.140;18.990;2022-08-27T09:26:18;98151.97;;;24.90;54.47
39491;BME280;25175;50.140;18.990;2022-08-27T09:29:25;98152.94;;;24.94;54.21
39491;BME280;25175;50.140;18.990;2022-08-27T09:32:31;98147.81;;;24.98;54.23
39491;BME280;25175;50.140;18.990;2022-08-27T09:35:40;98150.16;;;24.99;53.70
39491;BME280;25175;50.140;18.990;2022-08-27T09:38:51;98162.56;;;25.09;53.36
39491;BME280;25175;50.140;18.990;2022-08-27T09:41:54;98165.81;;;25.19;53.89
39491;BME280;25175;50.140;18.990;2022-08-27T09:44:57;98164.28;;;25.27;52.25
39491;BME280;25175;50.140;18.990;2022-08-27T09:48:03;98166.28;;;25.21;52.32
39491;BME280;25175;50.140;18.990;2022-08-27T09:51:10;98154.59;;;25.17;52.55
39491;BME280;25175;50.140;18.990;2022-08-27T09:54:25;98146.16;;;25.10;53.17
39491;BME280;25175;50.140;18.990;2022-08-27T09:57:32;98155.31;;;25.09;52.91
39491;BME280;25175;50.140;18.990;2022-08-27T10:00:37;98155.31;;;25.09;53.26
39491;BME280;25175;50.140;18.990;2022-08-27T10:03:40;98148.72;;;25.15;53.58
39491;BME280;25175;50.140;18.990;2022-08-27T10:06:46;98152.03;;;25.34;54.06
39491;BME280;25175;50.140;18.990;2022-08-27T10:09:52;98153.72;;;25.52;53.15
39491;BME280;25175;50.140;18.990;2022-08-27T10:13:00;98151.34;;;25.73;53.14
39491;BME280;25175;50.140;18.990;2022-08-27T10:16:29;98149.75;;;25.94;51.48
39491;BME280;25175;50.140;18.990;2022-08-27T10:19:51;98145.91;;;26.17;51.42
39491;BME280;25175;50.140;18.990;2022-08-27T10:23:09;98143.63;;;26.41;47.66
39491;BME280;25175;50.140;18.990;2022-08-27T10:26:17;98134.97;;;26.52;48.20
39491;BME280;25175;50.140;18.990;2022-08-27T10:29:34;98123.59;;;26.55;48.25
39491;BME280;25175;50.140;18.990;2022-08-27T10:32:54;98131.00;;;26.58;47.81
39491;BME280;25175;50.140;18.990;2022-08-27T10:36:03;98138.97;;;26.72;47.27
39491;BME280;25175;50.140;18.990;2022-08-27T10:39:15;98134.41;;;26.81;46.78
39491;BME280;25175;50.140;18.990;2022-08-27T10:42:25;98132.69;;;26.85;45.69
39491;BME280;25175;50.140;18.990;2022-08-27T10:45:37;98129.03;;;26.89;45.50
39491;BME280;25175;50.140;18.990;2022-08-27T10:48:49;98120.97;;;26.98;44.79
39491;BME280;25175;50.140;18.990;2022-08-27T10:51:58;98111.47;;;27.09;45.33
39491;BME280;25175;50.140;18.990;2022-08-27T10:55:12;98109.25;;;27.11;45.75
39491;BME280;25175;50.140;18.990;2022-08-27T10:58:21;98110.66;;;27.08;45.43
39491;BME280;25175;50.140;18.990;2022-08-27T11:01:37;98107.19;;;27.16;44.81
39491;BME280;25175;50.140;18.990;2022-08-27T11:04:46;98113.88;;;27.27;44.18
39491;BME280;25175;50.140;18.990;2022-08-27T11:07:52;98107.19;;;27.42;44.41
39491;BME280;25175;50.140;18.990;2022-08-27T11:11:01;98108.25;;;27.58;43.02
39491;BME280;25175;50.140;18.990;2022-08-27T11:14:13;98107.94;;;27.68;44.79
39491;BME280;25175;50.140;18.990;2022-08-27T11:17:19;98105.22;;;27.68;43.42
39491;BME280;25175;50.140;18.990;2022-08-27T11:20:27;98093.72;;;27.50;43.58
39491;BME280;25175;50.140;18.990;2022-08-27T11:23:36;98089.56;;;27.61;44.69
39491;BME280;25175;50.140;18.990;2022-08-27T11:26:43;98090.16;;;27.84;43.86
39491;BME280;25175;50.140;18.990;2022-08-27T11:29:53;98099.97;;;27.88;42.94
39491;BME280;25175;50.140;18.990;2022-08-27T11:33:05;98093.59;;;27.93;42.99
39491;BME280;25175;50.140;18.990;2022-08-27T11:36:22;98093.63;;;27.84;43.01
39491;BME280;25175;50.140;18.990;2022-08-27T11:39:53;98094.41;;;27.93;43.70
39491;BME280;25175;50.140;18.990;2022-08-27T11:43:03;98076.41;;;28.14;43.72
39491;BME280;25175;50.140;18.990;2022-08-27T11:46:07;98075.81;;;28.29;42.78
39491;BME280;25175;50.140;18.990;2022-08-27T11:49:19;98075.34;;;28.27;40.67
39491;BME280;25175;50.140;18.990;2022-08-27T11:52:26;98067.78;;;28.21;39.49
39491;BME280;25175;50.140;18.990;2022-08-27T11:55:31;98064.38;;;28.12;40.12
39491;BME280;25175;50.140;18.990;2022-08-27T11:58:37;98065.13;;;28.12;40.06
39491;BME280;25175;50.140;18.990;2022-08-27T12:01:40;98061.66;;;28.12;40.48
39491;BME280;25175;50.140;18.990;2022-08-27T12:04:42;98055.69;;;28.27;41.43
39491;BME280;25175;50.140;18.990;2022-08-27T12:07:48;98059.75;;;28.41;39.77
39491;BME280;25175;50.140;18.990;2022-08-27T12:10:55;98054.47;;;28.53;39.97
39491;BME280;25175;50.140;18.990;2022-08-27T12:14:10;98060.75;;;28.57;40.23
39491;BME280;25175;50.140;18.990;2022-08-27T12:17:22;98051.81;;;28.65;40.55
39491;BME280;25175;50.140;18.990;2022-08-27T12:20:42;98049.25;;;28.69;39.32
39491;BME280;25175;50.140;18.990;2022-08-27T12:23:58;98055.22;;;28.54;38.76
39491;BME280;25175;50.140;18.990;2022-08-27T12:27:15;98055.09;;;28.50;40.19
39491;BME280;25175;50.140;18.990;2022-08-27T12:30:22;98057.34;;;28.48;39.24
39491;BME280;25175;50.140;18.990;2022-08-27T12:33:31;98052.84;;;28.52;39.38
39491;BME280;25175;50.140;18.990;2022-08-27T12:36:34;98047.75;;;28.59;39.73
39491;BME280;25175;50.140;18.990;2022-08-27T12:39:40;98054.53;;;28.65;40.29
39491;BME280;25175;50.140;18.990;2022-08-27T12:42:45;98048.59;;;28.72;39.79
39491;BME280;25175;50.140;18.990;2022-08-27T12:45:50;98049.81;;;28.74;39.77
39491;BME280;25175;50.140;18.990;2022-08-27T12:48:55;98046.88;;;28.67;38.61
39491;BME280;25175;50.140;18.990;2022-08-27T12:52:01;98059.44;;;28.63;38.61
39491;BME280;25175;50.140;18.990;2022-08-27T12:55:14;98063.31;;;28.54;39.88
39491;BME280;25175;50.140;18.990;2022-08-27T12:58:29;98057.53;;;28.43;40.85
39491;BME280;25175;50.140;18.990;2022-08-27T13:01:47;98059.19;;;28.27;41.28
39491;BME280;25175;50.140;18.990;2022-08-27T13:04:54;98052.69;;;27.99;42.29
39491;BME280;25175;50.140;18.990;2022-08-27T13:07:58;98048.00;;;27.88;43.05
39491;BME280;25175;50.140;18.990;2022-08-27T13:11:09;98042.78;;;27.74;42.67
39491;BME280;25175;50.140;18.990;2022-08-27T13:14:13;98034.34;;;27.55;43.62
39491;BME280;25175;50.140;18.990;2022-08-27T13:17:20;98026.28;;;27.47;43.64
39491;BME280;25175;50.140;18.990;2022-08-27T13:20:24;98024.25;;;27.35;44.32
39491;BME280;25175;50.140;18.990;2022-08-27T13:23:27;98040.91;;;27.29;44.73
39491;BME280;25175;50.140;18.990;2022-08-27T13:26:32;98040.91;;;27.20;44.90
39491;BME280;25175;50.140;18.990;2022-08-27T13:29:37;98035.84;;;27.10;45.15
39491;BME280;25175;50.140;18.990;2022-08-27T13:32:41;98050.09;;;26.94;45.60
39491;BME280;25175;50.140;18.990;2022-08-27T13:35:45;98038.88;;;26.83;46.34
39491;BME280;25175;50.140;18.990;2022-08-27T13:38:48;98039.81;;;26.79;47.22
39491;BME280;25175;50.140;18.990;2022-08-27T13:41:51;98044.59;;;26.73;46.87
39491;BME280;25175;50.140;18.990;2022-08-27T13:44:59;98043.00;;;26.72;47.83
39491;BME280;25175;50.140;18.990;2022-08-27T13:48:04;98039.63;;;26.67;47.64
39491;BME280;25175;50.140;18.990;2022-08-27T13:51:07;98042.00;;;26.51;47.79
39491;BME280;25175;50.140;18.990;2022-08-27T13:54:11;98050.22;;;26.46;48.52
39491;BME280;25175;50.140;18.990;2022-08-27T13:57:22;98042.63;;;26.48;48.75
39491;BME280;25175;50.140;18.990;2022-08-27T14:00:27;98046.59;;;26.51;49.28
39491;BME280;25175;50.140;18.990;2022-08-27T14:03:34;98038.53;;;26.51;48.46
39491;BME280;25175;50.140;18.990;2022-08-27T14:06:40;98040.44;;;26.42;48.29
39491;BME280;25175;50.140;18.990;2022-08-27T14:09:46;98043.25;;;26.28;48.23
39491;BME280;25175;50.140;18.990;2022-08-27T14:12:55;98038.19;;;26.18;48.22
39491;BME280;25175;50.140;18.990;2022-08-27T14:15:58;98044.34;;;26.19;48.64
39491;BME280;25175;50.140;18.990;2022-08-27T14:19:06;98051.59;;;26.18;48.55
39491;BME280;25175;50.140;18.990;2022-08-27T14:22:09;98051.91;;;26.17;48.36
39491;BME280;25175;50.140;18.990;2022-08-27T14:25:12;98049.06;;;26.13;48.00
39491;BME280;25175;50.140;18.990;2022-08-27T14:28:15;98040.81;;;26.10;48.57
39491;BME280;25175;50.140;18.990;2022-08-27T14:31:17;98053.44;;;26.09;48.89
39491;BME280;25175;50.140;18.990;2022-08-27T14:34:21;98064.97;;;26.01;48.98
39491;BME280;25175;50.140;18.990;2022-08-27T14:37:24;98058.63;;;25.97;48.89
39491;BME280;25175;50.140;18.990;2022-08-27T14:40:26;98054.66;;;25.95;49.23
39491;BME280;25175;50.140;18.990;2022-08-27T14:43:28;98054.97;;;25.93;49.15
39491;BME280;25175;50.140;18.990;2022-08-27T14:46:32;98061.28;;;25.89;48.22
39491;BME280;25175;50.140;18.990;2022-08-27T14:49:39;98072.31;;;25.87;48.76
39491;BME280;25175;50.140;18.990;2022-08-27T14:52:43;98064.09;;;25.84;48.18
39491;BME280;25175;50.140;18.990;2022-08-27T14:55:46;98067.72;;;25.79;48.61
39491;BME280;25175;50.140;18.990;2022-08-27T14:58:49;98069.31;;;25.80;48.50
39491;BME280;25175;50.140;18.990;2022-08-27T15:01:51;98059.53;;;25.84;49.19
39491;BME280;25175;50.140;18.990;2022-08-27T15:04:55;98060.50;;;25.88;48.74
39491;BME280;25175;50.140;18.990;2022-08-27T15:07:57;98064.13;;;25.92;48.83
39491;BME280;25175;50.140;18.990;2022-08-27T15:10:59;98058.63;;;25.97;49.21
39491;BME280;25175;50.140;18.990;2022-08-27T15:14:06;98055.63;;;25.99;49.26
39491;BME280;25175;50.140;18.990;2022-08-27T15:17:10;98051.53;;;26.01;48.87
39491;BME280;25175;50.140;18.990;2022-08-27T15:20:14;98051.06;;;25.99;48.73
39491;BME280;25175;50.140;18.990;2022-08-27T15:23:18;98047.88;;;25.97;49.03
39491;BME280;25175;50.140;18.990;2022-08-27T15:26:20;98049.28;;;25.95;49.42
39491;BME280;25175;50.140;18.990;2022-08-27T15:29:23;98048.53;;;25.94;49.36
39491;BME280;25175;50.140;18.990;2022-08-27T15:32:27;98040.28;;;25.91;49.31
39491;BME280;25175;50.140;18.990;2022-08-27T15:35:32;98041.22;;;25.86;49.35
39491;BME280;25175;50.140;18.990;2022-08-27T15:38:35;98047.81;;;25.80;49.56
39491;BME280;25175;50.140;18.990;2022-08-27T15:41:38;98049.41;;;25.81;50.07
39491;BME280;25175;50.140;18.990;2022-08-27T15:44:50;98059.66;;;25.79;49.65
39491;BME280;25175;50.140;18.990;2022-08-27T15:47:53;98054.59;;;25.78;49.98
39491;BME280;25175;50.140;18.990;2022-08-27T15:50:59;98054.44;;;25.74;50.19
39491;BME280;25175;50.140;18.990;2022-08-27T15:54:02;98050.66;;;25.75;50.39
39491;BME280;25175;50.140;18.990;2022-08-27T15:57:06;98049.88;;;25.75;50.42
39491;BME280;25175;50.140;18.990;2022-08-27T16:00:10;98049.69;;;25.71;50.70
39491;BME280;25175;50.140;18.990;2022-08-27T16:03:13;98055.25;;;25.75;51.30
39491;BME280;25175;50.140;18.990;2022-08-27T16:06:17;98041.50;;;25.76;51.22
39491;BME280;25175;50.140;18.990;2022-08-27T16:09:20;98045.28;;;25.75;51.42